• Join FlightAware (Why Join?)
  • Login
  • US Flag 
02:23AM EST


 

Airport Tracker/Info


-or-


 

Live Flight TrackerFlight Track Log ✈ CJT620 ✈ 11-Apr-2013 ✈ CYHM - CYQM

Flight Track Log - Related Links

Times and Time Zones

All times are in EDT time to prevent confusion due to time zone crossing. See the CJT620 flight status page for this flight to view local times or setup timezone preferences in your user account.

Time Position Orientation Groundspeed Altitude Reporting Facility
EDT Latitude Longitude Course Direction KTS MPH feet Rate Location/Type
12:27AM 43.1667 -79.8833 31° Northeast 170 196 1,500  Level Toronto Center
12:28AM 43.1500 -79.8333 115° Southeast 180 207 3,500 2,100 Climbing Toronto Center
12:29AM 43.1333 -79.7500 105° East 240 276 5,700 2,160 Climbing Toronto Center
12:30AM 43.1500 -79.6333 79° East 280 322 7,900 2,400 Climbing Toronto Center
12:31AM 43.2000 -79.5333 56° Northeast 310 357 10,500 1,980 Climbing Toronto Center
12:32AM 43.3555 -79.0739 31° Northeast  Level FlightAware Approximate
12:32AM 43.2667 -79.4500 42° Northeast 350 403 11,900  Level Toronto Center
12:33AM 43.3500 -79.3167 49° Northeast 410 472 13,700 2,100 Climbing Toronto Center
12:34AM 43.4333 -79.2000 45° Northeast 440 506 16,100 2,220 Climbing Toronto Center
12:35AM 43.5167 -79.0500 53° Northeast 460 529 18,200 1,980 Climbing Toronto Center
12:36AM 43.5833 -78.9167 55° Northeast 480 552 20,100 1,920 Climbing Toronto Center
12:37AM 43.6500 -78.7333 63° Northeast 500 575 22,100 1,740 Climbing Toronto Center
12:38AM 43.7000 -78.5500 69° East 510 587 23,600 1,500 Climbing Toronto Center
12:39AM 43.7500 -78.3667 69° East 530 610 25,100 1,440 Climbing Toronto Center
12:40AM 43.8167 -78.1833 63° Northeast 540 621 26,500 1,500 Climbing Toronto Center
12:41AM 43.8833 -77.9833 65° Northeast 550 633 28,200 1,740 Climbing Toronto Center
12:42AM 43.9500 -77.7833 65° Northeast 550 633 30,000 1,620 Climbing Toronto Center
12:43AM 44.0167 -77.6000 63° Northeast 550 633 31,500 1,560 Climbing Toronto Center
12:44AM 44.0833 -77.4000 65° Northeast 550 633 33,200 1,500 Climbing Toronto Center
12:45AM 44.1333 -77.2167 69° East 540 621 34,500 900 Climbing Toronto Center
12:46AM 44.1833 -77.0333 69° East 540 621 35,000 240 Climbing Toronto Center
12:47AM 44.2333 -76.8167 72° East 550 633 35,000  Level Toronto Center
12:48AM 44.2667 -76.6000 78° East 550 633 35,000  Level Toronto Center
12:49AM 44.3167 -76.4167 69° East 560 644 35,000  Level Toronto Center
12:50AM 44.3667 -76.2000 72° East 560 644 35,000  Level Toronto Center
12:51AM 44.4000 -75.9833 78° East 560 644 35,000  Level Toronto Center
12:52AM 44.4500 -75.7833 71° East 560 644 35,000  Level Toronto Center
12:53AM 44.5042 -75.6450 61° Northeast 550 633 35,000  Level Boston Center
12:53AM 44.5000 -75.5667 94° East 560 644 35,000  Level Montreal Center
12:54AM 44.5381 -75.4750 60° Northeast 550 633 35,000  Level Boston Center
12:55AM 44.5856 -75.2472 74° East 550 633 35,000  Level Boston Center
12:56AM 44.6261 -75.0272 75° East 555 639 35,000  Level Boston Center
12:56AM 44.6333 -74.9333 84° East 570 656 35,000  Level Montreal Center
12:57AM 44.6833 -74.7167 72° East 570 656 35,000  Level Montreal Center
12:58AM 44.7097 -74.6017 72° East 565 650 35,000  Level Boston Center
12:59AM 44.7489 -74.4014 75° East 551 634 35,000  Level Boston Center
01:00AM 44.7897 -74.1892 75° East 551 634 35,000  Level Boston Center
01:01AM 44.8369 -73.9506 74° East 563 648 35,000  Level Boston Center
01:01AM 44.8333 -73.8667 93° East 560 644 35,000  Level Montreal Center
01:02AM 44.8833 -73.6500 72° East 560 644 35,000  Level Montreal Center
01:03AM 44.9333 -73.4333 72° East 570 656 35,000  Level Montreal Center
01:04AM 44.9500 -73.2167 84° East 560 644 35,000  Level Montreal Center
01:05AM 45.0000 -73.0000 72° East 560 644 35,000  Level Montreal Center
01:06AM 45.0500 -72.8000 70° East 560 644 35,000  Level Montreal Center
01:07AM 45.0667 -72.5833 84° East 570 656 35,000  Level Montreal Center
01:08AM 45.1167 -72.3667 72° East 570 656 35,000  Level Montreal Center
01:09AM 45.1500 -72.1500 78° East 560 644 35,000  Level Montreal Center
01:10AM 45.1833 -71.9333 78° East 570 656 35,000  Level Montreal Center
01:11AM 45.2167 -71.7167 78° East 570 656 35,000  Level Montreal Center
01:12AM 45.2561 -71.5997 64° Northeast 567 652 35,000  Level Boston Center
01:13AM 45.2897 -71.3811 78° East 567 652 35,000  Level Boston Center
01:13AM 45.3000 -71.2667 83° East 570 656 35,000  Level Montreal Center
01:14AM 45.3333 -71.0333 78° East 580 667 35,000  Level Montreal Center
01:15AM 45.3667 -70.8167 78° East 570 656 35,000  Level Montreal Center
01:16AM 45.3983 -70.7139 66° East 567 652 35,000  Level Boston Center
01:17AM 45.4322 -70.4883 78° East 567 652 35,000  Level Boston Center
01:18AM 45.4681 -70.2681 77° East 567 652 35,000  Level Boston Center
01:19AM 45.5011 -70.0417 78° East 572 658 35,000  Level Boston Center
01:20AM 45.5356 -69.8119 78° East 572 658 35,000  Level Boston Center
01:21AM 45.5714 -69.5642 78° East 572 658 35,000  Level Boston Center
01:22AM 45.6072 -69.3400 77° East 577 664 35,000  Level Boston Center
01:23AM 45.6364 -69.1128 80° East 577 664 35,000  Level Boston Center
01:24AM 45.6714 -68.8878 77° East 583 671 35,000  Level Boston Center
01:25AM 45.7017 -68.6572 79° East 583 671 35,000  Level Boston Center
01:26AM 45.7358 -68.4317 78° East 583 671 35,000  Level Boston Center
01:27AM 45.7617 -68.2186 80° East 588 677 35,000  Level Boston Center
01:28AM 45.7906 -67.9903 80° East 588 677 35,000 -120 Level Boston Center
01:28AM 45.8000 -67.8000 86° East 590 679 34,900 -1,080 Descending Moncton Center
01:29AM 45.8333 -67.5833 77° East 590 679 33,300 -1,740 Descending Moncton Center
01:30AM 45.8500 -67.3500 84° East 570 656 31,500 -1,920 Descending Moncton Center
01:31AM 45.8833 -67.1333 77° East 560 644 29,500 -2,340 Descending Moncton Center
01:32AM 45.9000 -66.9167 84° East 570 656 26,900 -3,000 Descending Moncton Center
01:33AM 45.9167 -66.6833 84° East 580 667 23,600 -3,060 Descending Moncton Center
01:34AM 45.9333 -66.4667 84° East 570 656 20,800 -2,760 Descending Moncton Center
01:35AM 45.9667 -66.2500 77° East 550 633 18,100 -2,760 Descending Moncton Center
01:36AM 45.9833 -66.0667 82° East 510 587 15,300 -3,240 Descending Moncton Center
01:37AM 46.0000 -65.8667 83° East 470 541 11,700 -2,400 Descending Moncton Center
01:38AM 46.0167 -65.7000 82° East 430 495 10,600 -900 Descending Moncton Center
01:39AM 46.0333 -65.5500 81° East 380 437 10,000 -900 Descending Moncton Center
01:40AM 46.0333 -65.4333 90° East 330 380 8,800 -1,380 Descending Moncton Center
01:41AM 46.0500 -65.3167 78° East 310 357 7,300 -1,680 Descending Moncton Center
01:42AM 46.0500 -65.2000 90° East 290 334 5,500 -1,500 Descending Moncton Center
01:43AM 46.0667 -65.0667 80° East 290 334 4,300 -1,320 Descending Moncton Center
01:44AM 46.0833 -64.9833 74° East 260 299 2,900 -960 Descending Moncton Center
01:45AM 46.1000 -64.8833 76° East 220 253 2,400 -540 Descending Moncton Center
01:46AM 46.1000 -64.8000 90° East 190 219 1,900 -660 Descending Moncton Center
01:47AM 46.1000 -64.7667 90° East 150 173 1,100 -780 Descending Moncton Center
01:48AM 46.1000 -64.7167 90° East 140 161 400 -480 Descending Moncton Center
01:49AM 46.1000 -64.6333 90° East 140 161 200 -240 Descending Moncton Center